createdAt,value
2023-04-11T00:00:30.706Z,16.92
2023-04-11T00:03:03.664Z,16.67
2023-04-11T00:05:34.131Z,17.75
2023-04-11T00:08:01.614Z,17.02
2023-04-11T00:10:28.653Z,16.10
2023-04-11T00:12:56.913Z,17.02
2023-04-11T00:15:24.823Z,16.73
2023-04-11T00:17:53.712Z,17.27
2023-04-11T00:20:21.327Z,17.38
2023-04-11T00:22:48.375Z,18.40
2023-04-11T00:25:15.603Z,16.73
2023-04-11T00:27:42.781Z,19.80
2023-04-11T00:30:10.387Z,18.77
2023-04-11T00:32:37.417Z,16.92
2023-04-11T00:35:04.751Z,16.60
2023-04-11T00:37:36.536Z,17.48
2023-04-11T00:40:05.944Z,16.98
2023-04-11T00:42:33.644Z,19.42
2023-04-11T00:45:00.887Z,17.58
2023-04-11T00:47:28.206Z,19.52
2023-04-11T00:49:55.340Z,17.33
2023-04-11T00:52:22.364Z,17.55
2023-04-11T00:54:51.217Z,19.92
2023-04-11T00:57:18.244Z,18.17
2023-04-11T00:59:48.565Z,17.88
2023-04-11T01:02:15.733Z,17.55
2023-04-11T01:04:44.042Z,17.45
2023-04-11T01:07:12.179Z,18.30
2023-04-11T01:09:39.856Z,18.92
2023-04-11T01:12:07.232Z,18.55
2023-04-11T01:14:34.305Z,18.83
2023-04-11T01:17:02.650Z,17.85
2023-04-11T01:19:31.336Z,19.40
2023-04-11T01:21:59.614Z,18.52
2023-04-11T01:24:26.832Z,19.17
2023-04-11T01:26:54.452Z,19.55
2023-04-11T01:29:21.567Z,17.92
2023-04-11T01:31:50.110Z,19.35
2023-04-11T01:34:18.521Z,18.80
2023-04-11T01:36:45.748Z,19.98
2023-04-11T01:39:12.947Z,21.13
2023-04-11T01:41:42.077Z,20.08
2023-04-11T01:44:09.258Z,20.38
2023-04-11T01:46:36.230Z,20.00
2023-04-11T01:49:03.695Z,17.60
2023-04-11T01:51:31.944Z,18.08
2023-04-11T01:53:59.047Z,17.23
2023-04-11T01:56:26.157Z,19.02
2023-04-11T01:58:53.520Z,19.13
2023-04-11T02:01:21.780Z,16.85
2023-04-11T02:03:48.895Z,14.85
2023-04-11T02:06:17.062Z,14.88
2023-04-11T02:08:44.859Z,17.42
2023-04-11T02:11:12.040Z,14.98
2023-04-11T02:13:38.942Z,14.75
2023-04-11T02:16:11.840Z,13.95
2023-04-11T02:18:40.041Z,13.20
2023-04-11T02:21:07.420Z,15.52
2023-04-11T02:23:34.558Z,15.30
2023-04-11T02:26:02.694Z,16.60
2023-04-11T02:28:30.467Z,16.77
2023-04-11T02:30:57.498Z,16.73
2023-04-11T02:33:24.660Z,16.95
2023-04-11T02:35:51.890Z,14.93
2023-04-11T02:38:19.041Z,17.10
2023-04-11T02:40:46.927Z,16.45
2023-04-11T02:43:13.888Z,15.20
2023-04-11T02:45:42.122Z,15.80
2023-04-11T02:48:10.320Z,14.40
2023-04-11T02:50:42.623Z,14.45
2023-04-11T02:53:09.791Z,16.35
2023-04-11T02:55:41.750Z,16.70
2023-04-11T02:58:08.855Z,15.77
2023-04-11T03:00:37.847Z,16.55
2023-04-11T03:03:08.053Z,17.75
2023-04-11T03:05:40.560Z,15.35
2023-04-11T03:08:09.232Z,17.23
2023-04-11T03:10:39.327Z,17.40
2023-04-11T03:13:09.827Z,15.68
2023-04-11T03:15:37.024Z,16.85
2023-04-11T03:18:07.929Z,15.43
2023-04-11T03:20:37.942Z,15.73
2023-04-11T03:23:05.814Z,15.98
2023-04-11T03:25:33.174Z,15.25
2023-04-11T03:28:02.418Z,15.50
2023-04-11T03:30:29.650Z,14.85
2023-04-11T03:33:01.120Z,16.13
2023-04-11T03:35:29.709Z,14.52
2023-04-11T03:37:57.411Z,17.55
2023-04-11T03:40:25.497Z,15.73
2023-04-11T03:43:04.873Z,15.23
2023-04-11T03:45:35.014Z,17.30
2023-04-11T03:48:05.151Z,18.83
2023-04-11T03:50:55.629Z,17.63
2023-04-11T03:53:28.049Z,18.13
2023-04-11T03:56:01.631Z,15.13
2023-04-11T03:58:34.592Z,17.02
2023-04-11T04:01:02.874Z,16.05
2023-04-11T04:03:30.871Z,15.75
2023-04-11T04:05:59.316Z,16.40
2023-04-11T04:08:26.532Z,16.10
2023-04-11T04:10:53.510Z,15.82
2023-04-11T04:13:21.382Z,14.75
2023-04-11T04:16:08.706Z,14.38
2023-04-11T04:18:36.384Z,15.25
2023-04-11T04:21:03.926Z,14.90
2023-04-11T04:23:32.617Z,13.85
2023-04-11T04:26:25.218Z,14.30
2023-04-11T04:29:06.401Z,14.00
2023-04-11T04:31:50.753Z,14.48
2023-04-11T04:34:22.068Z,13.05
2023-04-11T04:36:50.465Z,14.18
2023-04-11T04:39:25.718Z,13.82
2023-04-11T04:42:01.573Z,14.32
2023-04-11T04:44:35.543Z,12.68
2023-04-11T04:47:08.019Z,13.25
2023-04-11T04:49:34.952Z,14.35
2023-04-11T04:52:01.925Z,14.27
2023-04-11T04:54:31.380Z,14.30
2023-04-11T04:56:58.681Z,13.73
2023-04-11T04:59:26.208Z,14.00
2023-04-11T05:02:00.495Z,13.43
2023-04-11T05:04:30.437Z,13.93
2023-04-11T05:06:59.337Z,14.20
2023-04-11T05:09:28.526Z,14.15
2023-04-11T05:12:07.240Z,14.05
2023-04-11T05:14:36.665Z,14.65
2023-04-11T05:17:04.160Z,14.00
2023-04-11T05:19:33.419Z,14.52
2023-04-11T05:22:01.361Z,13.52
2023-04-11T05:24:28.810Z,15.73
2023-04-11T05:27:01.193Z,14.38
2023-04-11T05:29:30.078Z,15.23
2023-04-11T05:31:57.911Z,14.98
2023-04-11T05:34:25.099Z,14.32
2023-04-11T05:36:53.126Z,15.32
2023-04-11T05:39:20.782Z,16.40
2023-04-11T05:41:49.523Z,14.75
2023-04-11T05:44:16.521Z,16.83
2023-04-11T05:46:43.540Z,14.13
2023-04-11T05:49:11.760Z,15.13
2023-04-11T05:51:38.907Z,13.88
2023-04-11T05:54:07.236Z,14.13
2023-04-11T05:56:35.439Z,12.18
2023-04-11T05:59:03.985Z,13.20
2023-04-11T06:01:32.257Z,11.85
2023-04-11T06:04:34.110Z,12.43
2023-04-11T06:07:03.855Z,13.43
2023-04-11T06:09:32.732Z,13.02
2023-04-11T06:12:01.687Z,13.55
2023-04-11T06:14:28.705Z,13.05
2023-04-11T06:16:56.056Z,12.63
2023-04-11T06:19:23.021Z,13.93
2023-04-11T06:21:49.965Z,11.32
2023-04-11T06:24:20.080Z,12.50
2023-04-11T06:26:47.075Z,11.70
2023-04-11T06:29:14.372Z,12.05
2023-04-11T06:31:41.736Z,12.48
2023-04-11T06:34:08.793Z,11.48
2023-04-11T06:36:37.378Z,11.80
2023-04-11T06:39:05.841Z,12.98
2023-04-11T06:41:32.910Z,12.88
2023-04-11T06:44:00.196Z,12.50
2023-04-11T06:46:27.560Z,14.38
2023-04-11T06:48:54.604Z,13.32
2023-04-11T06:51:24.577Z,15.65
2023-04-11T06:53:51.592Z,13.55
2023-04-11T06:56:24.098Z,15.43
2023-04-11T06:58:53.216Z,14.35
2023-04-11T07:01:25.691Z,14.40
2023-04-11T07:03:56.444Z,14.10
2023-04-11T07:06:23.646Z,16.55
2023-04-11T07:08:52.550Z,13.60
2023-04-11T07:11:20.246Z,15.50
2023-04-11T07:13:47.377Z,14.45
2023-04-11T07:16:14.443Z,14.88
2023-04-11T07:18:43.815Z,15.65
2023-04-11T07:21:17.592Z,14.73
2023-04-11T07:23:45.125Z,14.88
2023-04-11T07:26:13.262Z,14.90
2023-04-11T07:28:41.660Z,14.88
2023-04-11T07:31:09.818Z,15.15
2023-04-11T07:33:37.909Z,14.48
2023-04-11T07:36:05.988Z,13.48
2023-04-11T07:38:37.759Z,14.88
2023-04-11T07:41:09.078Z,14.15
2023-04-11T07:43:36.487Z,13.00
2023-04-11T07:46:03.943Z,14.07
2023-04-11T07:48:33.466Z,14.35
2023-04-11T07:51:00.974Z,14.30
2023-04-11T07:53:28.074Z,13.90
2023-04-11T07:55:55.153Z,13.20
2023-04-11T07:58:22.449Z,12.82
2023-04-11T08:00:50.750Z,13.45
2023-04-11T08:03:17.968Z,14.63
2023-04-11T08:05:47.981Z,14.43
2023-04-11T08:08:14.952Z,14.32
2023-04-11T08:10:44.569Z,14.35
2023-04-11T08:13:11.484Z,13.63
2023-04-11T08:15:40.434Z,15.05
2023-04-11T08:18:07.508Z,14.80
2023-04-11T08:20:35.049Z,14.75
2023-04-11T08:23:06.309Z,14.90
2023-04-11T08:25:33.745Z,15.18
2023-04-11T08:28:01.519Z,15.20
2023-04-11T08:30:28.640Z,15.57
2023-04-11T08:32:55.947Z,13.98
2023-04-11T08:35:23.104Z,14.35
2023-04-11T08:37:50.103Z,14.25
2023-04-11T08:40:17.033Z,13.18
2023-04-11T08:42:44.776Z,12.70
2023-04-11T08:45:12.286Z,14.05
2023-04-11T08:47:39.281Z,12.73
2023-04-11T08:50:06.874Z,13.07
2023-04-11T08:52:38.884Z,12.05
2023-04-11T08:55:06.212Z,13.02
2023-04-11T08:57:33.359Z,12.05
2023-04-11T09:00:14.320Z,12.93
2023-04-11T09:03:03.349Z,11.55
2023-04-11T09:05:39.307Z,12.10
2023-04-11T09:08:11.882Z,11.27
2023-04-11T09:10:41.047Z,11.15
2023-04-11T09:13:23.030Z,10.73
2023-04-11T09:16:12.117Z,12.30
2023-04-11T09:18:43.295Z,10.93
2023-04-11T09:21:12.649Z,11.77
2023-04-11T09:23:40.556Z,12.25
2023-04-11T09:26:09.947Z,12.48
2023-04-11T09:28:55.161Z,10.63
2023-04-11T09:31:38.346Z,11.25
2023-04-11T09:34:05.473Z,10.85
2023-04-11T09:36:32.639Z,11.52
2023-04-11T09:38:59.916Z,11.07
2023-04-11T09:41:34.850Z,12.32
2023-04-11T09:44:02.621Z,11.70
2023-04-11T09:46:29.745Z,10.05
2023-04-11T09:48:57.083Z,10.68
2023-04-11T09:51:35.966Z,10.32
2023-04-11T09:54:04.981Z,10.38
2023-04-11T09:56:34.743Z,11.63
2023-04-11T09:59:02.957Z,10.70
2023-04-11T10:01:30.111Z,10.93
2023-04-11T10:03:58.530Z,10.27
2023-04-11T10:06:41.632Z,10.32
2023-04-11T10:09:14.184Z,10.43
2023-04-11T10:11:45.050Z,9.93
2023-04-11T10:14:36.698Z,10.25
2023-04-11T10:17:24.238Z,9.80
2023-04-11T10:19:56.844Z,9.70
2023-04-11T10:22:43.495Z,10.53
2023-04-11T10:25:24.925Z,9.90
2023-04-11T10:28:04.241Z,10.23
2023-04-11T10:31:01.695Z,8.52
2023-04-11T10:33:28.970Z,9.75
2023-04-11T10:36:06.060Z,10.23
2023-04-11T10:38:46.228Z,9.88
2023-04-11T10:41:16.701Z,9.55
2023-04-11T10:43:44.119Z,8.73
2023-04-11T10:46:25.066Z,9.27
2023-04-11T10:49:03.366Z,9.68
2023-04-11T10:51:32.659Z,9.65
2023-04-11T10:54:00.956Z,10.20
2023-04-11T10:56:44.185Z,9.65
2023-04-11T10:59:34.415Z,10.85
2023-04-11T11:02:02.954Z,8.65
2023-04-11T11:04:37.433Z,9.27
2023-04-11T11:07:12.622Z,9.95
2023-04-11T11:09:39.899Z,9.45
2023-04-11T11:12:11.157Z,10.05
2023-04-11T11:14:39.388Z,9.35
2023-04-11T11:17:07.740Z,8.77
2023-04-11T11:19:36.196Z,8.30
2023-04-11T11:22:04.916Z,9.15
2023-04-11T11:24:32.602Z,9.57
2023-04-11T11:26:59.801Z,10.30
2023-04-11T11:29:31.977Z,9.80
2023-04-11T11:32:01.210Z,9.43
2023-04-11T11:34:30.148Z,8.63
2023-04-11T11:36:59.264Z,7.82
2023-04-11T11:39:27.860Z,7.55
2023-04-11T11:41:56.254Z,8.95
2023-04-11T11:44:28.319Z,8.57
2023-04-11T11:47:05.300Z,8.00
2023-04-11T11:49:52.811Z,8.10
2023-04-11T11:52:43.681Z,7.38
2023-04-11T11:55:19.781Z,7.75
2023-04-11T11:57:50.433Z,8.85
2023-04-11T12:00:27.845Z,7.63
2023-04-11T12:02:56.624Z,7.55
2023-04-11T12:05:33.209Z,8.82
2023-04-11T12:08:02.770Z,7.57
2023-04-11T12:10:56.342Z,7.78
2023-04-11T12:13:27.328Z,6.88
2023-04-11T12:16:01.598Z,9.13
2023-04-11T12:18:28.935Z,8.27
2023-04-11T12:20:56.224Z,7.65
2023-04-11T12:23:23.464Z,8.13
2023-04-11T12:25:50.746Z,7.70
2023-04-11T12:28:18.063Z,8.00
2023-04-11T12:30:45.031Z,7.57
2023-04-11T12:33:13.806Z,8.10
2023-04-11T12:35:40.809Z,7.47
2023-04-11T12:38:08.142Z,6.57
2023-04-11T12:40:35.287Z,6.80
2023-04-11T12:43:02.504Z,7.32
2023-04-11T12:45:29.863Z,8.05
2023-04-11T12:47:56.846Z,7.85
2023-04-11T12:50:24.422Z,7.47
2023-04-11T12:52:51.969Z,7.18
2023-04-11T12:55:19.227Z,7.25
2023-04-11T12:57:46.240Z,7.57
2023-04-11T13:00:14.066Z,9.10
2023-04-11T13:02:44.598Z,8.35
2023-04-11T13:05:14.594Z,7.45
2023-04-11T13:07:42.864Z,8.10
2023-04-11T13:10:10.616Z,8.32
2023-04-11T13:12:41.364Z,8.43
2023-04-11T13:15:09.767Z,8.05
2023-04-11T13:17:36.969Z,7.20
2023-04-11T13:20:08.106Z,7.07
2023-04-11T13:22:35.171Z,8.43
2023-04-11T13:25:02.105Z,6.85
2023-04-11T13:27:29.406Z,8.57
2023-04-11T13:29:56.547Z,7.30
2023-04-11T13:32:23.966Z,7.50
2023-04-11T13:34:51.822Z,7.72
2023-04-11T13:37:18.950Z,6.63
2023-04-11T13:39:46.258Z,6.20
2023-04-11T13:42:13.743Z,6.80
2023-04-11T13:44:40.700Z,7.72
2023-04-11T13:47:07.875Z,6.38
2023-04-11T13:49:34.926Z,8.00
2023-04-11T13:52:01.904Z,7.00
2023-04-11T13:54:29.690Z,7.18
2023-04-11T13:56:57.036Z,6.47
2023-04-11T13:59:24.215Z,6.78
2023-04-11T14:01:51.347Z,7.78
2023-04-11T14:04:18.698Z,6.65
2023-04-11T14:06:45.893Z,6.72
2023-04-11T14:09:12.945Z,8.25
2023-04-11T14:11:40.050Z,6.13
2023-04-11T14:14:07.145Z,6.25
2023-04-11T14:16:34.241Z,7.68
2023-04-11T14:19:01.222Z,7.28
2023-04-11T14:21:28.760Z,7.47
2023-04-11T14:23:56.488Z,7.55
2023-04-11T14:26:23.621Z,7.07
2023-04-11T14:28:50.678Z,7.20
2023-04-11T14:31:17.832Z,7.32
2023-04-11T14:33:44.922Z,7.28
2023-04-11T14:36:12.130Z,8.60
2023-04-11T14:38:39.516Z,7.32
2023-04-11T14:41:06.657Z,7.07
2023-04-11T14:43:33.632Z,7.03
2023-04-11T14:46:00.800Z,7.53
2023-04-11T14:48:28.899Z,7.43
2023-04-11T14:50:56.200Z,7.32
2023-04-11T14:53:23.580Z,7.15
2023-04-11T14:55:50.678Z,7.20
2023-04-11T14:58:17.593Z,7.63
2023-04-11T15:00:44.968Z,9.02
2023-04-11T15:03:12.590Z,7.53
2023-04-11T15:05:40.208Z,6.90
2023-04-11T15:08:08.262Z,6.88
2023-04-11T15:10:35.581Z,7.63
2023-04-11T15:13:02.924Z,6.32
2023-04-11T15:15:30.094Z,6.78
2023-04-11T15:18:26.060Z,7.43
2023-04-11T15:20:53.225Z,8.20
2023-04-11T15:23:21.112Z,7.45
2023-04-11T15:25:58.450Z,6.72
2023-04-11T15:28:27.546Z,7.65
2023-04-11T15:30:55.526Z,7.72
2023-04-11T15:33:24.194Z,7.72
2023-04-11T15:35:57.901Z,7.25
2023-04-11T15:38:27.656Z,8.00
2023-04-11T15:40:58.618Z,7.78
2023-04-11T15:43:26.014Z,6.97
2023-04-11T15:45:53.568Z,7.45
2023-04-11T15:48:20.868Z,6.80
2023-04-11T15:50:47.852Z,6.50
2023-04-11T15:53:14.840Z,7.97
2023-04-11T15:55:42.832Z,7.82
2023-04-11T15:58:10.108Z,9.10
2023-04-11T16:00:38.503Z,7.15
2023-04-11T16:03:10.611Z,9.02
2023-04-11T16:05:40.924Z,7.93
2023-04-11T16:08:08.405Z,7.25
2023-04-11T16:10:35.780Z,7.85
2023-04-11T16:13:03.298Z,8.10
2023-04-11T16:15:30.574Z,7.38
2023-04-11T16:17:57.912Z,7.63
2023-04-11T16:20:25.884Z,6.53
2023-04-11T16:22:52.932Z,7.57
2023-04-11T16:25:21.568Z,7.47
2023-04-11T16:27:50.455Z,8.52
2023-04-11T16:30:17.742Z,7.85
2023-04-11T16:32:45.231Z,7.65
2023-04-11T16:35:12.414Z,8.30
2023-04-11T16:37:39.571Z,7.22
2023-04-11T16:40:11.975Z,8.15
2023-04-11T16:42:40.194Z,7.68
2023-04-11T16:45:09.088Z,8.05
2023-04-11T16:47:36.450Z,8.35
2023-04-11T16:50:05.143Z,7.93
2023-04-11T16:52:32.801Z,9.20
2023-04-11T16:54:59.937Z,7.07
2023-04-11T16:57:27.617Z,6.97
2023-04-11T16:59:54.777Z,9.40
2023-04-11T17:02:22.061Z,9.27
2023-04-11T17:04:51.914Z,7.65
2023-04-11T17:07:19.129Z,10.80
2023-04-11T17:09:49.927Z,9.25
2023-04-11T17:12:16.881Z,9.98
2023-04-11T17:14:45.824Z,9.48
2023-04-11T17:17:12.836Z,7.38
2023-04-11T17:19:39.891Z,9.80
2023-04-11T17:22:07.311Z,8.18
2023-04-11T17:24:34.188Z,9.30
2023-04-11T17:27:01.224Z,8.02
2023-04-11T17:29:28.612Z,9.30
2023-04-11T17:31:55.616Z,12.38
2023-04-11T17:34:22.515Z,10.43
2023-04-11T17:36:49.525Z,10.95
2023-04-11T17:39:18.152Z,10.02
2023-04-11T17:41:46.092Z,9.88
2023-04-11T17:44:13.643Z,10.77
2023-04-11T17:46:41.314Z,9.32
2023-04-11T17:49:08.544Z,10.30
2023-04-11T17:51:38.842Z,11.02
2023-04-11T17:54:09.988Z,10.15
2023-04-11T17:56:37.262Z,10.77
2023-04-11T17:59:04.249Z,10.60
2023-04-11T18:01:32.680Z,9.15
2023-04-11T18:04:02.263Z,10.70
2023-04-11T18:06:29.901Z,11.52
2023-04-11T18:08:57.200Z,10.52
2023-04-11T18:11:24.594Z,11.25
2023-04-11T18:13:52.069Z,10.63
2023-04-11T18:16:19.313Z,10.80
2023-04-11T18:18:47.539Z,10.98
2023-04-11T18:21:16.350Z,11.73
2023-04-11T18:23:43.529Z,11.80
2023-04-11T18:26:10.777Z,11.50
2023-04-11T18:28:37.824Z,11.15
2023-04-11T18:31:05.366Z,11.20
2023-04-11T18:33:32.936Z,13.82
2023-04-11T18:36:00.167Z,11.57
2023-04-11T18:38:27.542Z,13.30
2023-04-11T18:40:56.214Z,13.70
2023-04-11T18:43:24.714Z,15.80
2023-04-11T18:45:51.681Z,13.70
2023-04-11T18:48:18.684Z,16.48
2023-04-11T18:50:48.630Z,15.00
2023-04-11T18:53:16.449Z,15.40
2023-04-11T18:55:43.488Z,14.40
2023-04-11T18:58:12.870Z,15.93
2023-04-11T19:00:42.131Z,15.32
2023-04-11T19:03:15.570Z,13.63
2023-04-11T19:05:44.053Z,11.82
2023-04-11T19:08:11.278Z,12.75
2023-04-11T19:10:38.562Z,12.02
2023-04-11T19:13:06.489Z,14.35
2023-04-11T19:15:33.598Z,11.38
2023-04-11T19:18:02.003Z,13.63
2023-04-11T19:20:29.763Z,12.88
2023-04-11T19:22:59.462Z,11.98
2023-04-11T19:25:32.200Z,12.45
2023-04-11T19:27:59.214Z,12.60
2023-04-11T19:30:26.429Z,12.60
2023-04-11T19:32:53.319Z,15.02
2023-04-11T19:35:24.310Z,14.65
2023-04-11T19:37:52.340Z,12.20
2023-04-11T19:40:19.361Z,14.48
2023-04-11T19:42:46.441Z,13.88
2023-04-11T19:45:13.415Z,14.32
2023-04-11T19:47:41.857Z,16.38
2023-04-11T19:50:13.139Z,14.55
2023-04-11T19:52:41.807Z,14.65
2023-04-11T19:55:09.683Z,12.73
2023-04-11T19:57:39.095Z,13.48
2023-04-11T20:00:12.419Z,13.50
2023-04-11T20:02:45.170Z,14.13
2023-04-11T20:05:15.523Z,13.30
2023-04-11T20:07:45.102Z,13.00
2023-04-11T20:14:07.361Z,14.23
2023-04-11T20:17:50.621Z,14.77
2023-04-11T20:20:39.912Z,12.48
2023-04-11T20:23:27.008Z,13.00
2023-04-11T20:28:58.433Z,15.32
2023-04-11T20:31:28.061Z,14.40
2023-04-11T20:33:55.396Z,14.88
2023-04-11T20:36:22.540Z,15.35
2023-04-11T20:38:49.914Z,14.93
2023-04-11T20:41:19.335Z,15.43
2023-04-11T20:43:46.339Z,15.23
2023-04-11T20:46:13.885Z,16.65
2023-04-11T20:48:42.790Z,16.08
2023-04-11T20:51:09.910Z,15.20
2023-04-11T20:53:36.866Z,14.95
2023-04-11T20:56:04.450Z,14.80
2023-04-11T20:58:31.368Z,16.02
2023-04-11T21:00:59.413Z,16.33
2023-04-11T21:03:30.359Z,16.67
2023-04-11T21:05:57.546Z,17.35
2023-04-11T21:08:24.869Z,16.35
2023-04-11T21:10:51.839Z,14.82
2023-04-11T21:13:18.851Z,15.40
2023-04-11T21:15:45.860Z,14.20
2023-04-11T21:18:12.858Z,16.17
2023-04-11T21:20:40.558Z,15.68
2023-04-11T21:23:07.452Z,16.38
2023-04-11T21:25:37.014Z,15.90
2023-04-11T21:28:03.993Z,15.75
2023-04-11T21:30:31.087Z,17.63
2023-04-11T21:32:58.122Z,15.50
2023-04-11T21:35:25.544Z,15.77
2023-04-11T21:37:52.504Z,16.60
2023-04-11T21:40:19.446Z,16.92
2023-04-11T21:42:46.377Z,16.92
2023-04-11T21:45:13.504Z,16.52
2023-04-11T21:47:40.703Z,17.50
2023-04-11T21:50:08.786Z,17.80
2023-04-11T21:52:35.884Z,16.40
2023-04-11T21:55:02.921Z,15.32
2023-04-11T21:57:33.548Z,15.95
2023-04-11T22:00:00.696Z,17.80
2023-04-11T22:02:27.742Z,16.98
2023-04-11T22:05:05.715Z,15.95
2023-04-11T22:07:39.129Z,16.10
2023-04-11T22:10:10.046Z,16.25
2023-04-11T22:12:37.379Z,17.02
2023-04-11T22:15:06.779Z,18.13
2023-04-11T22:17:34.918Z,16.50
2023-04-11T22:20:01.831Z,17.35
2023-04-11T22:22:30.245Z,15.82
2023-04-11T22:25:00.276Z,17.48
2023-04-11T22:27:27.528Z,16.90
2023-04-11T22:29:57.194Z,16.85
2023-04-11T22:32:24.302Z,19.67
2023-04-11T22:34:51.436Z,17.33
2023-04-11T22:37:18.485Z,17.88
2023-04-11T22:39:45.777Z,16.08
2023-04-11T22:42:12.822Z,16.88
2023-04-11T22:44:39.791Z,17.15
2023-04-11T22:47:11.291Z,16.75
2023-04-11T22:49:41.015Z,17.13
2023-04-11T22:52:09.480Z,16.70
2023-04-11T22:54:36.471Z,18.15
2023-04-11T22:57:03.767Z,18.65
2023-04-11T22:59:31.028Z,15.63
2023-04-11T23:01:58.161Z,17.13
2023-04-11T23:04:25.261Z,17.33
2023-04-11T23:06:53.828Z,18.23
2023-04-11T23:09:21.314Z,16.27
2023-04-11T23:11:49.002Z,16.73
2023-04-11T23:14:21.287Z,18.52
2023-04-11T23:16:48.702Z,15.50
2023-04-11T23:19:17.251Z,17.52
2023-04-11T23:21:44.690Z,18.15
2023-04-11T23:24:11.715Z,17.77
2023-04-11T23:26:38.759Z,15.95
2023-04-11T23:29:05.749Z,15.13
2023-04-11T23:31:32.730Z,17.15
2023-04-11T23:34:00.747Z,18.00
2023-04-11T23:36:28.122Z,16.02
2023-04-11T23:38:55.300Z,16.90
2023-04-11T23:41:22.426Z,17.50
2023-04-11T23:43:49.411Z,16.83
2023-04-11T23:46:19.270Z,17.67
2023-04-11T23:48:49.290Z,17.20
2023-04-11T23:51:16.799Z,16.70
2023-04-11T23:53:44.015Z,18.17
2023-04-11T23:56:11.065Z,16.73
2023-04-11T23:58:38.421Z,17.67
